Time;durP1;ratioP1;P1;durP2;ratioP2;P2;SDS_P1;SDS_P2;PMS_P1;PMS_P2;Temp;Humidity;BMP_temperature;BMP_pressure;BME280_temperature;BME280_humidity;BME280_pressure;Samples;Min_cycle;Max_cycle;Signal;HPM_P1;HPM_P2
2022/12/10 00:02:03;;;;;;;12.18;7.03;;;1.50;99.90;;;;;;5098533;28;20035;-74
2022/12/10 00:04:28;;;;;;;11.15;7.47;;;1.50;99.90;;;;;;5080421;28;20476;-74
2022/12/10 00:06:54;;;;;;;11.57;6.65;;;1.60;99.90;;;;;;5098385;28;20024;-74
2022/12/10 00:09:20;;;;;;;11.50;7.03;;;1.60;99.90;;;;;;5098796;28;20041;-74
2022/12/10 00:11:46;;;;;;;12.32;7.10;;;1.60;99.90;;;;;;5079940;28;20035;-74
2022/12/10 00:14:13;;;;;;;12.23;7.13;;;1.50;99.90;;;;;;5098388;28;20140;-74
2022/12/10 00:16:39;;;;;;;12.00;7.47;;;1.40;99.90;;;;;;5097204;28;20028;-74
2022/12/10 00:19:05;;;;;;;12.55;7.93;;;1.30;99.90;;;;;;5098484;28;20039;-74
2022/12/10 00:21:33;;;;;;;13.02;7.40;;;1.20;99.90;;;;;;5097767;28;20028;-74
2022/12/10 00:24:00;;;;;;;13.02;7.05;;;1.20;99.90;;;;;;5079875;28;20115;-74
2022/12/10 00:26:31;;;;;;;12.05;7.97;;;1.30;99.90;;;;;;5098174;28;20031;-74
2022/12/10 00:28:59;;;;;;;11.68;7.30;;;1.30;99.90;;;;;;5098411;28;20380;-73
2022/12/10 00:31:28;;;;;;;11.35;7.75;;;1.40;99.90;;;;;;5098107;28;20028;-74
2022/12/10 00:33:56;;;;;;;10.63;6.95;;;1.40;99.90;;;;;;5079749;28;20039;-75
2022/12/10 00:36:38;;;;;;;11.77;7.65;;;1.40;99.90;;;;;;5079812;28;20101;-74
2022/12/10 00:39:04;;;;;;;10.80;6.63;;;1.50;99.90;;;;;;5097756;28;20404;-74
2022/12/10 00:41:30;;;;;;;11.15;6.75;;;1.50;99.90;;;;;;5097936;28;20028;-74
2022/12/10 00:43:56;;;;;;;11.63;6.80;;;1.40;99.90;;;;;;5097806;28;20024;-74
2022/12/10 00:46:22;;;;;;;14.07;7.72;;;1.30;99.90;;;;;;5097869;28;20047;-74
2022/12/10 00:48:48;;;;;;;11.80;7.47;;;1.20;99.90;;;;;;5097696;28;20103;-74
2022/12/10 00:51:22;;;;;;;12.32;7.78;;;1.20;99.90;;;;;;5097599;28;20067;-75
2022/12/10 00:53:50;;;;;;;10.05;6.38;;;1.30;99.90;;;;;;5097630;28;20062;-74
2022/12/10 00:56:18;;;;;;;11.77;7.47;;;1.30;99.90;;;;;;5079827;28;20028;-74
2022/12/10 00:58:44;;;;;;;10.93;7.20;;;1.20;99.90;;;;;;5079365;28;20076;-74
2022/12/10 01:01:26;;;;;;;10.40;6.70;;;1.20;99.90;;;;;;5097486;28;20034;-74
2022/12/10 01:03:55;;;;;;;11.18;6.88;;;1.30;99.90;;;;;;5097767;28;20154;-74
2022/12/10 01:06:29;;;;;;;9.93;6.50;;;1.20;99.90;;;;;;5079355;28;20103;-74
2022/12/10 01:08:58;;;;;;;10.50;6.15;;;1.30;99.90;;;;;;5097675;28;20027;-74
2022/12/10 01:11:27;;;;;;;10.43;7.22;;;1.30;99.90;;;;;;5097291;28;20027;-76
2022/12/10 01:13:53;;;;;;;10.18;6.72;;;1.30;99.90;;;;;;5097607;28;20036;-75
2022/12/10 01:16:21;;;;;;;9.02;6.20;;;1.30;99.90;;;;;;5097440;28;20028;-74
2022/12/10 01:18:47;;;;;;;10.05;6.53;;;1.30;99.90;;;;;;5097473;28;20031;-76
2022/12/10 01:21:16;;;;;;;11.40;6.47;;;1.30;99.90;;;;;;5096829;28;20027;-74
2022/12/10 01:23:44;;;;;;;10.52;6.28;;;1.30;99.90;;;;;;5097061;28;20518;-74
2022/12/10 01:26:13;;;;;;;12.07;7.03;;;1.30;99.90;;;;;;5097152;28;20065;-74
2022/12/10 01:28:40;;;;;;;10.95;6.93;;;1.30;99.90;;;;;;5099110;28;20012;-74
2022/12/10 01:31:16;;;;;;;10.77;6.90;;;1.30;99.90;;;;;;5101137;28;20028;-74
2022/12/10 01:33:41;;;;;;;11.25;6.55;;;1.20;99.90;;;;;;5101903;28;20099;-74
2022/12/10 01:36:10;;;;;;;11.20;6.45;;;1.20;99.90;;;;;;5082911;28;20043;-74
2022/12/10 01:38:37;;;;;;;10.93;6.65;;;1.20;99.90;;;;;;5083165;28;20020;-74
2022/12/10 01:41:03;;;;;;;11.15;6.82;;;1.20;99.90;;;;;;5101281;28;20028;-74
2022/12/10 01:43:56;;;;;;;10.48;6.70;;;1.00;99.90;;;;;;5101327;28;20020;-74
2022/12/10 01:46:26;;;;;;;10.48;6.43;;;1.10;99.90;;;;;;5101441;28;20063;-77
2022/12/10 01:48:52;;;;;;;9.32;6.40;;;1.10;99.90;;;;;;5100963;28;20024;-76
2022/12/10 01:51:18;;;;;;;7.95;5.75;;;1.10;99.90;;;;;;5101085;28;20024;-76
2022/12/10 01:53:45;;;;;;;9.55;6.28;;;1.20;99.90;;;;;;5082985;28;20032;-77
2022/12/10 01:56:11;;;;;;;9.73;6.18;;;1.10;99.90;;;;;;5101179;28;20153;-74
2022/12/10 01:58:38;;;;;;;10.25;5.93;;;1.10;99.90;;;;;;5082311;28;20079;-74
2022/12/10 02:01:25;;;;;;;9.02;5.57;;;1.00;99.90;;;;;;5101024;28;20020;-76
2022/12/10 02:04:09;;;;;;;9.82;6.20;;;1.00;99.90;;;;;;5101402;28;20468;-75
2022/12/10 02:06:55;;;;;;;10.18;6.15;;;0.90;99.90;;;;;;5082389;28;20032;-74
2022/12/10 02:09:33;;;;;;;10.82;6.10;;;0.90;99.90;;;;;;5082565;28;20077;-75
2022/12/10 02:12:21;;;;;;;9.65;6.45;;;0.90;99.90;;;;;;5082815;28;20028;-74
2022/12/10 02:14:47;;;;;;;8.70;5.60;;;0.90;99.90;;;;;;5082400;28;20031;-74
2022/12/10 02:17:21;;;;;;;9.95;5.72;;;0.90;99.90;;;;;;5100581;28;20032;-74
2022/12/10 02:19:58;;;;;;;8.73;5.22;;;0.90;99.90;;;;;;5100725;28;20024;-74
2022/12/10 02:22:29;;;;;;;9.77;5.82;;;1.00;99.90;;;;;;5082166;28;20024;-75
2022/12/10 02:24:57;;;;;;;9.00;5.47;;;0.90;99.90;;;;;;5082147;28;20031;-74
2022/12/10 02:27:40;;;;;;;8.07;5.43;;;0.90;99.90;;;;;;5082002;28;20024;-75
2022/12/10 02:30:06;;;;;;;9.13;5.30;;;0.90;99.90;;;;;;5082145;28;20024;-74
2022/12/10 02:32:37;;;;;;;9.85;5.95;;;0.90;99.90;;;;;;5100295;28;20472;-74
2022/12/10 02:35:08;;;;;;;10.30;6.20;;;0.90;99.90;;;;;;5100437;28;20024;-74
2022/12/10 02:37:38;;;;;;;8.50;5.32;;;0.90;99.90;;;;;;5099824;28;20028;-74
2022/12/10 02:40:18;;;;;;;8.88;5.60;;;0.90;99.90;;;;;;5081240;28;20188;-74
2022/12/10 02:42:48;;;;;;;10.07;6.72;;;0.80;99.90;;;;;;5100153;28;20107;-74
2022/12/10 02:45:13;;;;;;;10.57;6.28;;;0.90;99.90;;;;;;5082094;28;20380;-74
2022/12/10 02:47:40;;;;;;;8.68;5.82;;;0.90;99.90;;;;;;5100055;28;20021;-74
2022/12/10 02:50:07;;;;;;;9.20;5.57;;;0.90;99.90;;;;;;5099861;28;20165;-73
2022/12/10 02:52:33;;;;;;;11.07;6.07;;;0.90;99.90;;;;;;5099489;28;20047;-75
2022/12/10 02:54:58;;;;;;;9.00;5.40;;;0.90;99.90;;;;;;5099825;28;20101;-74
2022/12/10 02:57:39;;;;;;;7.95;5.05;;;0.90;99.90;;;;;;5100052;28;20111;-74
2022/12/10 03:00:19;;;;;;;8.52;5.53;;;0.80;99.90;;;;;;5099355;28;20051;-74
2022/12/10 03:03:00;;;;;;;10.40;6.43;;;0.80;99.90;;;;;;5100059;28;20085;-74
2022/12/10 03:05:49;;;;;;;11.35;5.57;;;0.90;99.90;;;;;;5099620;28;20027;-74
2022/12/10 03:08:21;;;;;;;8.25;5.82;;;0.80;99.90;;;;;;5099435;28;20392;-74
2022/12/10 03:11:04;;;;;;;9.25;5.82;;;0.80;99.90;;;;;;5099682;28;20024;-74
2022/12/10 03:13:38;;;;;;;9.18;5.28;;;0.80;99.90;;;;;;5081326;28;20501;-73
2022/12/10 03:16:05;;;;;;;10.48;6.47;;;0.80;99.90;;;;;;5081560;28;20081;-74
2022/12/10 03:18:34;;;;;;;9.85;5.78;;;0.80;99.90;;;;;;5099186;28;20112;-74
2022/12/10 03:21:03;;;;;;;9.75;5.07;;;0.80;99.90;;;;;;5099219;28;20032;-74
2022/12/10 03:23:32;;;;;;;9.43;5.88;;;0.90;99.90;;;;;;5081308;28;20020;-74
2022/12/10 03:25:58;;;;;;;8.48;5.65;;;0.80;99.90;;;;;;5099458;28;20113;-74
2022/12/10 03:28:26;;;;;;;8.73;5.57;;;0.90;99.90;;;;;;5081084;28;20503;-74
2022/12/10 03:30:54;;;;;;;8.23;5.40;;;0.90;99.90;;;;;;5099430;28;20106;-74
2022/12/10 03:33:20;;;;;;;10.45;5.72;;;0.90;99.90;;;;;;5099293;28;20020;-73
2022/12/10 03:35:47;;;;;;;10.77;6.25;;;0.80;99.90;;;;;;5098915;28;20020;-74
2022/12/10 03:38:13;;;;;;;10.70;6.38;;;0.70;99.90;;;;;;5080725;28;20035;-74
2022/12/10 03:40:39;;;;;;;9.70;5.70;;;0.70;99.90;;;;;;5080625;28;20031;-74
2022/12/10 03:43:05;;;;;;;10.05;5.82;;;0.70;99.90;;;;;;5099332;28;20020;-74
2022/12/10 03:45:30;;;;;;;8.80;6.00;;;0.70;99.90;;;;;;5080640;28;20107;-74
2022/12/10 03:47:56;;;;;;;7.95;5.65;;;0.70;99.90;;;;;;5080797;28;20077;-74
2022/12/10 03:50:22;;;;;;;9.43;5.45;;;0.60;99.90;;;;;;5098406;28;20043;-74
2022/12/10 03:52:47;;;;;;;8.35;5.25;;;0.60;99.90;;;;;;5098567;28;20039;-74
2022/12/10 03:55:13;;;;;;;9.13;6.10;;;0.70;99.90;;;;;;5098685;28;20430;-74
2022/12/10 03:57:39;;;;;;;9.13;6.18;;;0.70;99.90;;;;;;5080528;28;20392;-74
2022/12/10 04:00:06;;;;;;;8.95;6.07;;;0.70;99.90;;;;;;5080051;28;20138;-74
2022/12/10 04:02:32;;;;;;;9.93;6.60;;;0.70;99.90;;;;;;5098604;28;20020;-74
2022/12/10 04:04:58;;;;;;;9.15;5.63;;;0.60;99.90;;;;;;5098601;28;20353;-74
2022/12/10 04:07:23;;;;;;;10.00;5.85;;;0.60;99.90;;;;;;5080485;28;20054;-74
2022/12/10 04:09:49;;;;;;;7.95;5.40;;;0.60;99.90;;;;;;5098497;28;20035;-74
2022/12/10 04:12:15;;;;;;;10.02;5.95;;;0.60;99.90;;;;;;5098499;28;20021;-74
2022/12/10 04:17:24;;;;;;;8.88;4.97;;;0.70;99.90;;;;;;5098354;28;20043;-74
2022/12/10 04:19:50;;;;;;;9.95;6.03;;;0.70;99.90;;;;;;5098350;28;20041;-74
2022/12/10 04:27:51;;;;;;;8.00;5.30;;;0.70;99.90;;;;;;5074147;28;20028;-74
2022/12/10 04:30:17;;;;;;;10.15;6.30;;;0.60;99.90;;;;;;5080207;28;20031;-74
2022/12/10 04:32:43;;;;;;;9.00;5.82;;;0.70;99.90;;;;;;5097816;28;20021;-74
2022/12/10 04:35:09;;;;;;;8.90;5.43;;;0.60;99.90;;;;;;5098077;28;20020;-74
2022/12/10 04:37:35;;;;;;;7.18;4.43;;;0.50;99.90;;;;;;5097530;28;20086;-75
2022/12/10 04:40:01;;;;;;;8.48;5.45;;;0.50;99.90;;;;;;5079682;28;20038;-75
2022/12/10 04:42:26;;;;;;;9.10;5.75;;;0.50;99.90;;;;;;5097782;28;20102;-74
2022/12/10 04:44:52;;;;;;;9.07;5.78;;;0.50;99.90;;;;;;5098010;28;20059;-76
2022/12/10 04:47:18;;;;;;;8.55;5.70;;;0.50;99.90;;;;;;5097588;28;20016;-74
2022/12/10 04:49:44;;;;;;;9.27;5.55;;;0.50;99.90;;;;;;5097699;28;20016;-76
2022/12/10 04:52:12;;;;;;;8.10;5.32;;;0.50;99.90;;;;;;5096947;28;20030;-77
2022/12/10 04:54:39;;;;;;;8.25;5.05;;;0.50;99.90;;;;;;5097117;28;20043;-76
2022/12/10 04:57:06;;;;;;;8.27;4.97;;;0.50;99.90;;;;;;5079711;28;20031;-76
2022/12/10 04:59:32;;;;;;;6.53;4.88;;;0.60;99.90;;;;;;5097626;28;20080;-74
2022/12/10 05:01:57;;;;;;;8.65;5.15;;;0.60;99.90;;;;;;5097521;28;20503;-74
2022/12/10 05:04:23;;;;;;;9.05;5.43;;;0.60;99.90;;;;;;5097192;28;20031;-75
2022/12/10 05:06:49;;;;;;;7.50;4.78;;;0.60;99.90;;;;;;5078935;28;20024;-74
2022/12/10 05:09:16;;;;;;;8.23;5.53;;;0.60;99.90;;;;;;5079621;28;20027;-74
2022/12/10 05:11:44;;;;;;;8.95;5.47;;;0.60;99.90;;;;;;5079188;28;20039;-74
2022/12/10 05:14:11;;;;;;;8.20;4.53;;;0.60;99.90;;;;;;5079587;28;20051;-74
2022/12/10 05:16:37;;;;;;;7.50;4.95;;;0.70;99.90;;;;;;5079069;28;20028;-74
2022/12/10 05:19:02;;;;;;;7.40;5.65;;;0.80;99.90;;;;;;5097468;28;20399;-74
2022/12/10 05:23:27;;;;;;;7.47;4.18;;;0.80;99.90;;;;;;5096858;28;20024;-74
2022/12/10 05:24:16;;;;;;;7.72;4.75;;;0.70;99.90;;;;;;5096758;28;20118;-77
2022/12/10 05:26:42;;;;;;;6.63;4.53;;;0.80;99.90;;;;;;5097142;28;20020;-75
2022/12/10 05:29:08;;;;;;;7.32;4.75;;;0.70;99.90;;;;;;5097152;28;20046;-74
2022/12/10 05:31:34;;;;;;;8.43;5.10;;;0.70;99.90;;;;;;5097267;28;20081;-75
2022/12/10 05:34:00;;;;;;;7.15;4.88;;;0.60;99.90;;;;;;5097119;28;20119;-75
2022/12/10 05:36:29;;;;;;;7.13;4.63;;;0.70;99.90;;;;;;5097318;28;20032;-75
2022/12/10 05:38:56;;;;;;;7.40;4.85;;;0.70;99.90;;;;;;5079192;28;20035;-75
2022/12/10 05:41:27;;;;;;;6.95;4.57;;;0.70;99.90;;;;;;5097175;28;20031;-75
2022/12/10 05:43:56;;;;;;;8.35;4.72;;;0.70;99.90;;;;;;5079081;28;20024;-75
2022/12/10 05:46:24;;;;;;;7.50;4.80;;;0.60;99.90;;;;;;5078869;28;20035;-75
2022/12/10 05:48:50;;;;;;;7.32;4.68;;;0.60;99.90;;;;;;5112927;28;20028;-75
2022/12/10 05:51:18;;;;;;;7.35;4.45;;;0.60;99.90;;;;;;5096727;28;20034;-75
2022/12/10 05:53:44;;;;;;;8.07;4.50;;;0.60;99.90;;;;;;5096900;28;20053;-75
2022/12/10 05:56:18;;;;;;;6.65;4.40;;;0.60;99.90;;;;;;5079292;28;20032;-76
2022/12/10 05:58:45;;;;;;;10.02;5.93;;;0.50;99.90;;;;;;5078789;28;20094;-75
2022/12/10 06:01:14;;;;;;;7.95;5.07;;;0.50;99.90;;;;;;5096869;28;20043;-76
2022/12/10 06:03:40;;;;;;;7.75;4.40;;;0.50;99.90;;;;;;5096672;28;20641;-75
2022/12/10 06:06:06;;;;;;;7.68;4.70;;;0.60;99.90;;;;;;5096547;28;20024;-75
2022/12/10 06:08:33;;;;;;;6.22;4.35;;;0.50;99.90;;;;;;5078619;28;20449;-75
2022/12/10 06:11:06;;;;;;;8.18;4.50;;;0.60;99.90;;;;;;5097007;28;20028;-75
2022/12/10 06:13:32;;;;;;;8.02;4.20;;;0.50;99.90;;;;;;5078849;28;20156;-75
2022/12/10 06:15:57;;;;;;;6.28;4.20;;;0.50;99.90;;;;;;5100268;28;20032;-75
2022/12/10 06:18:23;;;;;;;5.15;4.00;;;0.60;99.90;;;;;;5100773;28;20160;-75
2022/12/10 06:20:49;;;;;;;7.68;4.22;;;0.60;99.90;;;;;;5100343;28;20087;-75
2022/12/10 06:23:15;;;;;;;7.35;4.53;;;0.60;99.90;;;;;;5100438;28;20016;-75
2022/12/10 06:25:40;;;;;;;7.25;4.38;;;0.60;99.90;;;;;;5100433;28;20024;-75
2022/12/10 06:28:07;;;;;;;6.30;3.97;;;0.60;99.90;;;;;;5100535;28;20012;-75
2022/12/10 06:30:34;;;;;;;6.90;3.90;;;0.60;99.90;;;;;;5100323;28;20024;-74
2022/12/10 06:33:00;;;;;;;6.05;3.80;;;0.60;99.90;;;;;;5081983;28;20020;-74
2022/12/10 06:35:25;;;;;;;7.30;4.30;;;0.50;99.90;;;;;;5081863;28;20084;-75
2022/12/10 06:37:51;;;;;;;6.53;4.03;;;0.50;99.90;;;;;;5100279;28;20028;-75
2022/12/10 06:40:18;;;;;;;5.70;3.85;;;0.40;99.90;;;;;;5100347;28;20060;-76
2022/12/10 06:42:43;;;;;;;7.63;4.55;;;0.40;99.90;;;;;;5100625;28;20020;-75
2022/12/10 06:45:09;;;;;;;7.72;4.78;;;0.30;99.90;;;;;;5100252;28;20413;-75
2022/12/10 06:47:35;;;;;;;8.00;5.07;;;0.20;99.90;;;;;;5099988;28;20043;-75
2022/12/10 06:50:01;;;;;;;6.75;4.90;;;0.20;99.90;;;;;;5100105;28;20030;-75
2022/12/10 06:52:26;;;;;;;8.80;4.95;;;0.20;99.90;;;;;;5100105;28;20019;-75
2022/12/10 06:54:54;;;;;;;7.25;4.65;;;0.30;99.90;;;;;;5099912;28;20392;-75
2022/12/10 06:57:20;;;;;;;7.45;4.85;;;0.30;99.90;;;;;;5099751;28;20084;-75
2022/12/10 06:59:46;;;;;;;7.53;4.55;;;0.30;99.90;;;;;;5100070;28;20071;-75
2022/12/10 07:02:12;;;;;;;7.97;4.40;;;0.30;99.90;;;;;;5099618;28;20024;-74
2022/12/10 07:04:38;;;;;;;7.40;4.50;;;0.30;99.90;;;;;;5099497;28;20044;-74
2022/12/10 07:07:06;;;;;;;6.13;3.90;;;0.30;99.90;;;;;;5098939;28;20038;-74
2022/12/10 07:09:32;;;;;;;6.45;4.00;;;0.40;99.90;;;;;;5081011;28;20063;-74
2022/12/10 07:11:58;;;;;;;7.72;4.57;;;0.40;99.90;;;;;;5081511;28;20024;-74
2022/12/10 07:14:23;;;;;;;7.70;4.85;;;0.40;99.90;;;;;;5099709;28;20024;-74
2022/12/10 07:16:49;;;;;;;6.60;4.25;;;0.40;99.90;;;;;;5099731;28;20369;-74
2022/12/10 07:19:15;;;;;;;8.02;4.43;;;0.40;99.90;;;;;;5099765;28;20024;-74
2022/12/10 07:21:42;;;;;;;5.20;3.60;;;0.40;99.90;;;;;;5099365;28;20041;-75
2022/12/10 07:24:16;;;;;;;6.25;3.88;;;0.40;99.90;;;;;;5099407;28;20095;-75
2022/12/10 07:26:43;;;;;;;7.93;4.95;;;0.40;99.90;;;;;;5098825;28;20012;-75
2022/12/10 07:29:13;;;;;;;8.27;5.10;;;0.40;99.90;;;;;;5080738;28;20022;-75
2022/12/10 07:31:39;;;;;;;5.88;3.78;;;0.40;99.90;;;;;;5098898;28;20072;-74
2022/12/10 07:34:05;;;;;;;7.55;4.30;;;0.30;99.90;;;;;;5099176;28;20063;-74
2022/12/10 07:36:30;;;;;;;6.53;3.80;;;0.30;99.90;;;;;;5099011;28;20039;-74
2022/12/10 07:38:56;;;;;;;7.57;4.43;;;0.30;99.90;;;;;;5081180;28;20035;-75
2022/12/10 07:41:23;;;;;;;7.95;4.38;;;0.30;99.90;;;;;;5099219;28;20028;-75
2022/12/10 07:43:49;;;;;;;6.20;4.35;;;0.30;99.90;;;;;;5080624;28;20023;-75
2022/12/10 07:46:27;;;;;;;6.25;3.97;;;0.30;99.90;;;;;;5080919;28;20023;-75
2022/12/10 07:48:53;;;;;;;6.60;4.13;;;0.30;99.90;;;;;;5080689;28;20027;-75
2022/12/10 07:51:20;;;;;;;7.15;4.65;;;0.40;99.90;;;;;;5098815;28;20073;-75
2022/12/10 07:53:47;;;;;;;6.72;4.35;;;0.30;99.90;;;;;;5080519;28;20551;-75
2022/12/10 07:56:13;;;;;;;6.53;4.60;;;0.20;99.90;;;;;;5080801;28;20031;-75
2022/12/10 07:58:43;;;;;;;8.32;4.85;;;0.20;99.90;;;;;;5098651;28;20054;-75
2022/12/10 08:01:12;;;;;;;6.10;4.45;;;0.30;99.90;;;;;;5098635;28;20081;-74
2022/12/10 08:03:38;;;;;;;6.47;4.28;;;0.30;99.90;;;;;;5098513;28;20099;-75
2022/12/10 08:06:06;;;;;;;6.95;4.28;;;0.30;99.90;;;;;;5098382;28;20046;-75
2022/12/10 08:08:36;;;;;;;7.28;4.45;;;0.30;99.90;;;;;;5080238;28;20418;-75
2022/12/10 08:11:02;;;;;;;9.90;5.28;;;0.30;99.90;;;;;;5080146;28;20032;-75
2022/12/10 08:13:28;;;;;;;7.93;5.53;;;0.20;99.90;;;;;;5098678;28;20476;-74
2022/12/10 08:15:59;;;;;;;8.20;5.43;;;0.10;99.90;;;;;;5080486;28;20028;-75
2022/12/10 08:18:25;;;;;;;8.48;5.68;;;0.10;99.90;;;;;;5080413;28;20024;-75
2022/12/10 08:20:51;;;;;;;6.65;4.47;;;0.20;99.90;;;;;;5079838;28;20032;-75
2022/12/10 08:23:16;;;;;;;7.45;4.93;;;0.30;99.90;;;;;;5080135;28;20023;-74
2022/12/10 08:25:42;;;;;;;7.80;5.60;;;0.40;99.90;;;;;;5098228;28;20085;-74
2022/12/10 08:28:08;;;;;;;7.70;5.07;;;0.40;99.90;;;;;;5080190;28;20407;-75
2022/12/10 08:30:34;;;;;;;9.93;5.55;;;0.50;99.90;;;;;;5079814;28;20074;-74
2022/12/10 08:33:00;;;;;;;9.68;5.40;;;0.50;99.90;;;;;;5098082;28;20472;-74
2022/12/10 08:35:26;;;;;;;9.77;5.03;;;0.50;99.90;;;;;;5079585;28;20032;-75
2022/12/10 08:37:52;;;;;;;9.98;6.07;;;0.50;99.90;;;;;;5083576;28;20032;-76
2022/12/10 08:40:17;;;;;;;8.05;5.43;;;0.50;99.90;;;;;;5079873;28;20073;-76
2022/12/10 08:42:43;;;;;;;8.10;5.45;;;0.70;99.90;;;;;;5098182;28;20395;-75
2022/12/10 08:45:09;;;;;;;10.38;6.80;;;0.70;99.90;;;;;;5097780;28;20032;-73
2022/12/10 08:47:34;;;;;;;9.18;5.72;;;0.70;99.90;;;;;;5084332;28;20031;-72
2022/12/10 08:50:00;;;;;;;12.65;7.45;;;0.70;99.90;;;;;;5097819;28;20028;-71
2022/12/10 08:52:28;;;;;;;11.00;7.18;;;0.70;99.90;;;;;;5097602;28;20085;-73
2022/12/10 08:54:54;;;;;;;11.80;6.80;;;0.70;99.90;;;;;;5097702;28;20031;-72
2022/12/10 08:57:20;;;;;;;10.98;6.93;;;0.70;99.90;;;;;;5097909;28;20104;-72
2022/12/10 08:59:45;;;;;;;10.38;6.13;;;0.70;99.90;;;;;;5097399;28;20052;-71
2022/12/10 09:02:11;;;;;;;9.57;6.10;;;0.70;99.90;;;;;;5079468;28;20109;-72
2022/12/10 09:04:38;;;;;;;11.05;6.78;;;0.70;99.90;;;;;;5097690;28;20505;-70
2022/12/10 09:07:04;;;;;;;11.02;7.10;;;0.70;99.90;;;;;;5097460;28;20389;-74
2022/12/10 09:09:31;;;;;;;11.23;7.35;;;0.70;99.90;;;;;;5097493;28;20027;-75
2022/12/10 09:11:57;;;;;;;11.88;7.50;;;0.70;99.90;;;;;;5079229;28;20024;-77
2022/12/10 09:14:23;;;;;;;9.73;6.75;;;0.80;99.90;;;;;;5097379;28;20024;-77
2022/12/10 09:16:49;;;;;;;10.85;7.53;;;0.80;99.90;;;;;;5079199;28;20064;-79
2022/12/10 09:19:15;;;;;;;12.35;6.97;;;0.90;99.90;;;;;;5079559;28;20032;-76
2022/12/10 09:21:41;;;;;;;11.95;7.07;;;0.90;99.90;;;;;;5078816;28;20028;-77
2022/12/10 09:24:07;;;;;;;8.77;6.30;;;0.90;99.90;;;;;;5079350;28;20055;-75
2022/12/10 09:26:33;;;;;;;9.98;6.45;;;0.90;99.90;;;;;;5097481;28;20055;-74
2022/12/10 09:28:59;;;;;;;12.07;6.95;;;1.00;99.90;;;;;;5079148;28;20480;-75
2022/12/10 09:31:26;;;;;;;9.68;6.53;;;1.00;99.90;;;;;;5079011;28;20138;-72
2022/12/10 09:33:53;;;;;;;11.63;7.30;;;1.00;99.90;;;;;;5096943;28;20034;-70
2022/12/10 09:36:20;;;;;;;10.52;6.72;;;1.00;99.90;;;;;;5097164;28;20089;-72
2022/12/10 09:38:47;;;;;;;10.38;6.22;;;1.10;99.90;;;;;;5079041;28;20024;-71
2022/12/10 09:41:34;;;;;;;10.60;6.43;;;1.10;99.90;;;;;;5096698;28;20102;-70
2022/12/10 09:44:42;;;;;;;9.07;5.38;;;1.10;99.90;;;;;;5094309;28;20071;-70
2022/12/10 09:47:10;;;;;;;9.32;6.28;;;1.10;99.90;;;;;;5096956;28;20056;-69
2022/12/10 09:49:47;;;;;;;9.50;6.18;;;1.20;99.90;;;;;;5098532;28;20024;-78
2022/12/10 09:52:17;;;;;;;7.75;5.38;;;1.30;99.90;;;;;;5100977;28;20099;-78
2022/12/10 09:54:49;;;;;;;11.05;7.07;;;1.30;99.90;;;;;;5101008;28;20028;-78
2022/12/10 09:57:24;;;;;;;10.15;7.07;;;1.30;99.90;;;;;;5100950;28;20060;-78
2022/12/10 09:59:52;;;;;;;10.63;6.53;;;1.30;99.90;;;;;;5100646;28;20048;-78
2022/12/10 10:02:32;;;;;;;11.55;7.18;;;1.40;99.90;;;;;;5082614;28;20388;-78
2022/12/10 10:05:07;;;;;;;10.35;6.88;;;1.50;99.90;;;;;;5100632;28;20020;-78
2022/12/10 10:07:39;;;;;;;8.68;6.05;;;1.50;99.90;;;;;;5100597;28;20024;-78
2022/12/10 10:10:19;;;;;;;11.50;7.22;;;1.50;99.90;;;;;;5100705;28;20020;-79
2022/12/10 10:12:45;;;;;;;9.77;6.50;;;1.50;99.90;;;;;;5100814;28;20036;-78
2022/12/10 10:15:23;;;;;;;10.45;6.47;;;1.60;99.90;;;;;;5100835;28;20027;-78
2022/12/10 10:17:53;;;;;;;11.13;7.68;;;1.60;99.90;;;;;;5100459;28;20024;-79
2022/12/10 10:20:19;;;;;;;10.63;7.07;;;1.70;99.90;;;;;;5082746;28;20035;-78
2022/12/10 10:22:45;;;;;;;9.63;6.45;;;1.70;99.90;;;;;;5082092;28;20470;-78
2022/12/10 10:25:18;;;;;;;10.65;7.28;;;1.70;99.90;;;;;;5100687;28;20044;-78
2022/12/10 10:27:44;;;;;;;11.05;7.63;;;1.70;99.90;;;;;;5100137;28;20028;-78
2022/12/10 10:30:16;;;;;;;10.50;7.05;;;1.70;99.90;;;;;;5099462;28;20038;-78
2022/12/10 10:32:42;;;;;;;9.07;6.97;;;1.80;99.90;;;;;;5082064;28;20053;-78
2022/12/10 10:35:27;;;;;;;11.15;7.03;;;1.80;99.90;;;;;;5100553;28;20032;-78
2022/12/10 10:38:01;;;;;;;9.57;6.13;;;1.90;99.90;;;;;;5081576;28;20028;-79
2022/12/10 10:40:40;;;;;;;7.50;5.60;;;1.90;99.90;;;;;;5081953;28;20028;-78
2022/12/10 10:43:11;;;;;;;9.68;6.10;;;2.00;99.90;;;;;;5099578;28;20451;-78
2022/12/10 10:45:40;;;;;;;10.52;7.35;;;2.00;99.90;;;;;;5081427;28;20031;-78
2022/12/10 10:48:17;;;;;;;10.60;6.82;;;2.00;99.90;;;;;;5100144;28;20031;-78
2022/12/10 10:50:49;;;;;;;9.55;6.05;;;2.10;99.90;;;;;;5080922;28;20031;-79
2022/12/10 10:53:43;;;;;;;10.63;6.05;;;2.10;99.90;;;;;;5081404;28;20028;-79
2022/12/10 10:56:50;;;;;;;7.38;5.32;;;2.10;99.90;;;;;;5095517;28;20086;-79
2022/12/10 10:59:17;;;;;;;7.45;5.55;;;2.20;99.90;;;;;;4997694;28;20054;-79
2022/12/10 11:01:48;;;;;;;8.57;5.45;;;2.20;99.90;;;;;;5077966;28;20074;-79
2022/12/10 11:04:15;;;;;;;7.78;5.53;;;2.20;99.90;;;;;;5098123;28;20104;-79
2022/12/10 11:06:43;;;;;;;8.15;5.68;;;2.20;99.90;;;;;;5095884;28;20037;-79
2022/12/10 11:09:21;;;;;;;10.07;6.40;;;2.20;99.90;;;;;;5099409;28;20028;-79
2022/12/10 11:11:57;;;;;;;10.07;6.70;;;2.20;99.90;;;;;;5115292;28;20032;-80
2022/12/10 11:14:40;;;;;;;9.65;5.63;;;2.20;99.90;;;;;;5098726;28;20024;-79
2022/12/10 11:17:09;;;;;;;;;;;2.30;99.90;;;;;;5099331;28;20021;-79
2022/12/10 11:19:35;;;;;;;6.65;5.07;;;2.40;99.90;;;;;;5099337;28;19904;-78
2022/12/10 11:22:22;;;;;;;7.32;5.20;;;2.40;99.90;;;;;;5098648;28;20048;-79
2022/12/10 11:24:49;;;;;;;8.75;5.28;;;2.40;99.90;;;;;;5099054;28;20024;-79
2022/12/10 11:27:41;;;;;;;10.35;5.57;;;2.50;99.90;;;;;;5081236;28;20025;-79
2022/12/10 11:30:17;;;;;;;9.75;6.43;;;2.50;99.90;;;;;;5080948;28;20024;-79
2022/12/10 11:33:21;;;;;;;8.13;5.63;;;2.60;99.90;;;;;;5099053;28;20047;-79
2022/12/10 11:36:02;;;;;;;8.77;6.15;;;2.60;99.90;;;;;;5098987;28;20460;-79
2022/12/10 11:38:59;;;;;;;10.68;6.53;;;2.60;99.90;;;;;;5099196;28;20027;-79
2022/12/10 11:41:33;;;;;;;10.18;6.28;;;2.70;99.90;;;;;;5080917;28;20392;-78
2022/12/10 11:44:09;;;;;;;9.63;5.95;;;2.70;99.90;;;;;;5098974;28;20027;-79
2022/12/10 11:46:52;;;;;;;8.05;5.40;;;2.70;99.90;;;;;;5080602;28;20038;-79
2022/12/10 11:49:32;;;;;;;8.30;5.05;;;2.70;99.90;;;;;;5098811;28;20023;-78
2022/12/10 11:52:22;;;;;;;9.10;5.15;;;2.80;99.90;;;;;;5098669;28;20032;-78
2022/12/10 11:55:12;;;;;;;6.97;4.55;;;2.80;99.90;;;;;;5098884;28;20024;-78
2022/12/10 11:57:51;;;;;;;6.50;4.75;;;3.00;99.90;;;;;;5080456;28;20073;-78
2022/12/10 12:00:27;;;;;;;6.60;4.45;;;3.00;99.90;;;;;;5098452;28;20405;-79
2022/12/10 12:02:58;;;;;;;6.40;4.40;;;3.10;99.90;;;;;;5080344;28;20031;-79
2022/12/10 12:05:41;;;;;;;8.48;4.55;;;3.10;99.90;;;;;;5098413;28;20048;-78
2022/12/10 12:08:12;;;;;;;6.35;4.53;;;3.10;99.90;;;;;;5098450;28;20032;-78
2022/12/10 12:11:16;;;;;;;6.60;4.38;;;3.20;99.90;;;;;;5080331;28;20123;-79
2022/12/10 12:13:54;;;;;;;5.28;4.30;;;3.20;99.90;;;;;;5080111;28;20074;-78
2022/12/10 12:16:37;;;;;;;5.90;4.40;;;3.30;99.90;;;;;;5098367;28;20451;-79
2022/12/10 12:19:19;;;;;;;6.97;4.43;;;3.30;99.90;;;;;;5098590;28;20479;-78
2022/12/10 12:21:49;;;;;;;6.40;4.17;;;3.30;99.90;;;;;;5098293;28;20020;-78
2022/12/10 12:24:34;;;;;;;7.07;4.40;;;3.40;99.90;;;;;;5098010;28;20020;-79
2022/12/10 12:27:13;;;;;;;6.38;4.28;;;3.40;99.90;;;;;;5080030;28;20024;-78
2022/12/10 12:29:47;;;;;;;6.32;4.45;;;3.50;99.90;;;;;;5098105;28;20073;-78
2022/12/10 12:32:31;;;;;;;5.60;4.18;;;3.50;99.90;;;;;;5079714;28;20468;-78
2022/12/10 12:35:01;;;;;;;7.47;4.60;;;3.60;99.90;;;;;;5098072;28;20083;-79
2022/12/10 12:37:40;;;;;;;8.45;5.28;;;3.60;99.90;;;;;;5079538;28;20449;-78
2022/12/10 12:40:23;;;;;;;6.70;4.78;;;3.70;99.90;;;;;;5079839;28;20028;-79
2022/12/10 12:43:11;;;;;;;7.10;5.18;;;3.70;99.90;;;;;;5098040;28;20027;-78
2022/12/10 12:45:46;;;;;;;6.63;4.65;;;3.70;99.90;;;;;;5097731;28;20055;-79
2022/12/10 12:48:16;;;;;;;6.47;4.88;;;3.80;99.90;;;;;;5097946;28;20082;-79
2022/12/10 12:50:44;;;;;;;6.18;4.40;;;3.80;99.90;;;;;;5097878;28;20539;-78
2022/12/10 12:53:13;;;;;;;7.05;4.70;;;3.90;99.90;;;;;;5079648;28;20039;-78
2022/12/10 12:56:12;;;;;;;7.80;5.47;;;3.90;99.90;;;;;;5078988;28;20171;-78
2022/12/10 12:58:53;;;;;;;6.35;4.47;;;3.90;99.90;;;;;;5079403;28;20052;-78
2022/12/10 13:01:31;;;;;;;6.47;4.97;;;4.00;99.90;;;;;;5079343;28;20057;-78
2022/12/10 13:03:57;;;;;;;6.32;4.75;;;4.10;99.90;;;;;;5097940;28;20103;-78
2022/12/10 13:06:26;;;;;;;7.38;4.97;;;4.10;99.90;;;;;;5097480;28;20103;-79
2022/12/10 13:08:57;;;;;;;7.53;4.90;;;4.10;99.90;;;;;;5079280;28;20084;-78
2022/12/10 13:11:35;;;;;;;6.70;4.68;;;4.20;99.90;;;;;;5097419;28;20028;-79
2022/12/10 13:14:07;;;;;;;7.03;5.45;;;4.30;99.90;;;;;;5097404;28;20127;-79
2022/12/10 13:16:45;;;;;;;8.75;5.65;;;4.30;99.90;;;;;;5078948;28;20522;-79
2022/12/10 13:19:19;;;;;;;8.35;5.03;;;4.40;99.90;;;;;;5097401;28;20021;-78
2022/12/10 13:21:51;;;;;;;7.43;4.95;;;4.40;99.90;;;;;;5097137;28;20038;-79